Flight Track Log - Related Links

Times and Time Zones

All times are in EDT time to prevent confusion due to time zone crossing. See the GJS6221 flight status page for this flight to view local times or setup timezone preferences in your user account.

Time Position Orientation Groundspeed Altitude Reporting Facility
EDT Latitude Longitude Course Direction KTS MPH feet Rate Location/Type
Thu 02:18:52 PM 40.7333 -73.8333 217° Southwest 186 214 2,400  Level New York TRACON
Thu 02:19:52 PM 40.7500 -73.7833 66° East 216 249 4,500 2,100 Climbing New York TRACON
Thu 02:20:52 PM 40.8167 -73.7833 360° North 279 321 6,600 2,250 Climbing New York TRACON
Thu 02:21:52 PM 40.8500 -73.8667 298° West 313 360 9,000 2,300 Climbing New York TRACON
Thu 02:22:52 PM 40.8333 -73.9667 258° West 318 366 11,200 1,500 Climbing New York TRACON
Thu 02:23:52 PM 40.7500 -74.0333 211° Southwest 328 377 12,000 400 Climbing New York TRACON
Thu 02:24:00 PM 40.0893 -74.5368 217° Southwest  Level Estimated
Thu 02:24:52 PM 40.6667 -74.0833 204° Southwest 344 396 12,000  Level New York TRACON
Thu 02:26:39 PM 40.4953 -74.1278 191° South 369 425 15,100 1,760 Climbing New York Center
Thu 02:27:39 PM 40.4050 -74.1506 191° South 369 425 16,900 1,598 Climbing New York Center
Thu 02:29:28 PM 40.2158 -74.1978 191° South 371 427 19,600 1,562 Climbing Washington Center
Thu 02:30:28 PM 40.1097 -74.2244 191° South 376 433 21,300 1,339 Climbing Washington Center
Thu 02:31:29 PM 40.0061 -74.2561 193° South 381 438 22,300 1,210 Climbing Washington Center
Thu 02:32:27 PM 39.9153 -74.3364 214° Southwest 381 438 23,700 1,261 Climbing Washington Center
Thu 02:33:28 PM 39.8267 -74.4269 218° Southwest 397 457 24,800 1,033 Climbing Washington Center
Thu 02:34:29 PM 39.7442 -74.5308 224° Southwest 410 472 25,800 1,008 Climbing Washington Center
Thu 02:35:27 PM 39.6617 -74.6372 225° Southwest 416 479 26,800 966 Climbing Washington Center
Thu 02:36:27 PM 39.5875 -74.7353 226° Southwest 422 486 27,700 843 Climbing Washington Center
Thu 02:37:28 PM 39.5050 -74.8464 226° Southwest 427 491 28,500 639 Climbing Washington Center
Thu 02:38:29 PM 39.4181 -74.9603 225° Southwest 432 497 29,000 496 Climbing Washington Center
Thu 02:39:29 PM 39.3311 -75.0736 225° Southwest 437 503 29,500 496 Climbing Washington Center
Thu 02:40:30 PM 39.2314 -75.1656 216° Southwest 437 503 30,000 508 Climbing Washington Center
Thu 02:41:27 PM 39.1233 -75.2439 209° Southwest 447 514 30,500 559 Climbing Washington Center
Thu 02:42:28 PM 39.0172 -75.3297 212° Southwest 454 522 31,100 645 Climbing Washington Center
Thu 02:43:28 PM 38.9089 -75.4128 211° Southwest 454 522 31,800 744 Climbing Washington Center
Thu 02:44:29 PM 38.8047 -75.4931 211° Southwest 449 517 32,600 793 Climbing Washington Center
Thu 02:45:29 PM 38.6986 -75.5703 210° Southwest 449 517 33,400 814 Climbing Washington Center
Thu 02:46:27 PM 38.5922 -75.6500 210° Southwest 449 517 34,200 763 Climbing Washington Center
Thu 02:47:27 PM 38.4900 -75.7269 211° Southwest 449 517 34,900 645 Climbing Washington Center
Thu 02:48:28 PM 38.3878 -75.8036 210° Southwest 449 517 35,500 595 Climbing Washington Center
Thu 02:49:28 PM 38.2811 -75.8747 208° Southwest 443 510 36,100 595 Climbing Washington Center
Thu 02:50:29 PM 38.1789 -75.9536 211° Southwest 438 504 36,700 541 Climbing Washington Center
Thu 02:51:30 PM 38.0764 -76.0269 209° Southwest 438 504 37,200 555 Climbing Washington Center
Thu 02:52:28 PM 37.9656 -76.1106 211° Southwest 433 498 37,800 407 Climbing Washington Center
Thu 02:53:28 PM 37.8631 -76.1836 209° Southwest 428 493 38,000 99 Climbing Washington Center
Thu 02:54:29 PM 37.7625 -76.2564 210° Southwest 423 487 38,000  Level Washington Center
Thu 02:55:30 PM 37.6642 -76.3317 211° Southwest 423 487 38,000  Level Washington Center
Thu 02:56:27 PM 37.5656 -76.4172 215° Southwest 428 493 38,000  Level Washington Center
Thu 02:57:27 PM 37.4731 -76.5050 217° Southwest 433 498 38,000  Level Washington Center
Thu 02:58:28 PM 37.3806 -76.5928 217° Southwest 428 493 38,000  Level Washington Center
Thu 02:59:29 PM 37.2881 -76.6778 216° Southwest 423 487 38,000  Level Washington Center
Thu 03:00:27 PM 37.1956 -76.7678 218° Southwest 423 487 38,000  Level Washington Center
Thu 03:01:28 PM 37.1197 -76.8394 217° Southwest 423 487 38,000  Level Washington Center
Thu 03:02:29 PM 37.0206 -76.9342 217° Southwest 423 487 38,000  Level Washington Center
Thu 03:03:29 PM 36.9300 -77.0183 217° Southwest 416 479 38,000  Level Washington Center
Thu 03:04:27 PM 36.8264 -77.1178 218° Southwest 423 487 38,000  Level Washington Center
Thu 03:05:28 PM 36.7336 -77.2039 217° Southwest 423 487 38,000  Level Washington Center
Thu 03:06:29 PM 36.6406 -77.2925 217° Southwest 418 481 38,000  Level Washington Center
Thu 03:07:27 PM 36.5456 -77.3783 216° Southwest 418 481 38,000  Level Washington Center
Thu 03:08:28 PM 36.4503 -77.4692 217° Southwest 418 481 38,000  Level Washington Center
Thu 03:09:28 PM 36.3697 -77.5422 216° Southwest 412 474 38,000  Level Washington Center
Thu 03:10:29 PM 36.2764 -77.6325 218° Southwest 420 483 38,000  Level Washington Center
Thu 03:11:27 PM 36.1831 -77.7175 216° Southwest 425 489 38,000  Level Washington Center
Thu 03:12:28 PM 36.0856 -77.8050 216° Southwest 425 489 38,000  Level Washington Center
Thu 03:13:28 PM 35.9900 -77.8922 216° Southwest 431 496 38,000  Level Washington Center
Thu 03:14:29 PM 35.8944 -77.9792 216° Southwest 431 496 38,000  Level Washington Center
Thu 03:15:29 PM 35.7944 -78.0683 216° Southwest 436 502 38,000  Level Washington Center
Thu 03:16:27 PM 35.6967 -78.1547 216° Southwest 441 507 38,000  Level Washington Center
Thu 03:17:28 PM 35.5883 -78.2508 216° Southwest 441 507 38,000  Level Washington Center
Thu 03:18:29 PM 35.4861 -78.3367 214° Southwest 441 507 38,000  Level Washington Center
Thu 03:19:30 PM 35.3817 -78.4275 215° Southwest 451 519 38,000  Level Washington Center
Thu 03:20:28 PM 35.2836 -78.5206 218° Southwest 456 525 38,000  Level Washington Center
Thu 03:21:28 PM 35.1875 -78.6086 217° Southwest 456 525 38,000  Level Washington Center
Thu 03:22:29 PM 35.0892 -78.6939 215° Southwest 445 512 38,000  Level Washington Center
Thu 03:24:03 PM 34.9331 -78.8336 216° Southwest 441 507 38,000  Level Jacksonville Center
Thu 03:25:03 PM 34.8378 -78.9167 216° Southwest 441 507 38,000  Level Jacksonville Center
Thu 03:26:03 PM 34.7403 -79.0019 216° Southwest 441 507 38,000  Level Jacksonville Center
Thu 03:27:03 PM 34.6428 -79.0872 216° Southwest 441 507 38,000  Level Jacksonville Center
Thu 03:28:03 PM 34.5450 -79.1669 214° Southwest 436 502 38,000  Level Jacksonville Center
Thu 03:29:03 PM 34.4517 -79.2592 219° Southwest 436 502 38,000  Level Jacksonville Center
Thu 03:30:03 PM 34.3561 -79.3436 216° Southwest 436 502 38,000  Level Jacksonville Center
Thu 03:31:03 PM 34.2561 -79.4231 213° Southwest 436 502 38,000  Level Jacksonville Center
Thu 03:32:03 PM 34.1706 -79.4967 215° Southwest 436 502 38,000  Level Jacksonville Center
Thu 03:33:03 PM 34.0747 -79.5808 216° Southwest 431 496 38,000  Level Jacksonville Center
Thu 03:34:03 PM 33.9767 -79.6672 216° Southwest 436 502 38,000  Level Jacksonville Center
Thu 03:35:03 PM 33.8767 -79.7508 215° Southwest 436 502 38,000  Level Jacksonville Center
Thu 03:36:03 PM 33.7783 -79.8317 214° Southwest 436 502 38,000 -450 Level Jacksonville Center
Thu 03:37:03 PM 33.6803 -79.9175 216° Southwest 436 502 37,100 -1,000 Descending Jacksonville Center
Thu 03:38:03 PM 33.5819 -80.0006 215° Southwest 436 502 36,000 -1,100 Descending Jacksonville Center
Thu 03:39:03 PM 33.4839 -80.0836 215° Southwest 436 502 34,900 -1,000 Descending Jacksonville Center
Thu 03:40:03 PM 33.3856 -80.1686 216° Southwest 436 502 34,000 -1,200 Descending Jacksonville Center
Thu 03:41:03 PM 33.2850 -80.2539 215° Southwest 436 502 32,500 -2,400 Descending Jacksonville Center
Thu 03:42:03 PM 33.1700 -80.3439 213° Southwest 441 507 29,200 -3,150 Descending Jacksonville Center
Thu 03:43:03 PM 33.0797 -80.4258 217° Southwest 434 499 26,200 -2,950 Descending Jacksonville Center
Thu 03:44:03 PM 32.9831 -80.5003 213° Southwest 428 493 23,300 -2,750 Descending Jacksonville Center
Thu 03:45:03 PM 32.8867 -80.5819 215° Southwest 423 487 20,700 -2,650 Descending Jacksonville Center
Thu 03:46:03 PM 32.7919 -80.6586 214° Southwest 423 487 18,000 -2,700 Descending Jacksonville Center
Thu 03:47:03 PM 32.7033 -80.7325 215° Southwest 417 480 15,300 -2,700 Descending Jacksonville Center
Thu 03:48:03 PM 32.6169 -80.8036 215° Southwest 394 453 12,600 -2,200 Descending Jacksonville Center
Thu 03:49:03 PM 32.5344 -80.8694 214° Southwest 367 422 10,900 -1,050 Descending Jacksonville Center
Thu 03:50:03 PM 32.4583 -80.9353 216° Southwest 343 395 10,500 -850 Descending Jacksonville Center
Thu 03:51:03 PM 32.3903 -80.9908 215° Southwest 316 364 9,200 -1,450 Descending Jacksonville Center
Thu 03:52:03 PM 32.3194 -80.9972 184° South 282 325 7,600 -1,200 Descending Jacksonville Center
Thu 03:53:03 PM 32.2486 -81.0036 184° South 271 312 6,800 -1,100 Descending Jacksonville Center
Thu 03:54:03 PM 32.1839 -81.0050 181° South 230 265 5,400 -1,750 Descending Jacksonville Center
Thu 03:55:03 PM 32.1383 -81.0353 209° Southwest 189 217 3,300 -1,750 Descending Jacksonville Center
Thu 03:56:03 PM 32.1244 -81.0822 251° West 162 186 1,900 -1,050 Descending Jacksonville Center
Thu 03:57:03 PM 32.1269 -81.1189 275° West 145 167 1,200 -700 Descending Jacksonville Center
Thu 03:59:00 PM 32.1167 -81.2000 180° South  Level FlightAware Approximate
Thu 04:06:00 PM 32.1276 -81.2021 180° South  Level Estimated
Thu 04:07:00 PM 32.1276 -81.2021 180° South  Level Estimated

Login

Don't have an account? Register now (free) for customized features, flight alerts, and more!